Time;durP1;ratioP1;P1;durP2;ratioP2;P2;SDS_P1;SDS_P2;PMS_P1;PMS_P2;Temp;Humidity;BMP_temperature;BMP_pressure;BME280_temperature;BME280_humidity;BME280_pressure;Samples;Min_cycle;Max_cycle;Signal;HPM_P1;HPM_P2
2023/09/12 00:00:47;;;;;;;6.97;5.13;;;;;;;;;;5017202;28;20235;-89
2023/09/12 00:03:13;;;;;;;15.20;6.15;;;;;;;;;;5027965;28;20208;-89
2023/09/12 00:05:40;;;;;;;9.00;6.15;;;;;;;;;;5016622;28;20238;-88
2023/09/12 00:08:08;;;;;;;10.52;5.68;;;;;;;;;;5029154;28;20199;-88
2023/09/12 00:10:35;;;;;;;9.77;5.90;;;;;;;;;;5036433;28;20241;-88
2023/09/12 00:13:03;;;;;;;7.68;5.82;;;;;;;;;;5036806;28;20206;-88
2023/09/12 00:15:31;;;;;;;7.22;5.50;;;;;;;;;;5036283;28;20238;-88
2023/09/12 00:17:58;;;;;;;9.55;5.65;;;;;;;;;;5036252;28;20207;-88
2023/09/12 00:20:25;;;;;;;8.23;6.00;;;;;;;;;;5036115;28;20234;-88
2023/09/12 00:22:53;;;;;;;8.50;5.82;;;;;;;;;;5030082;28;20210;-88
2023/09/12 00:25:20;;;;;;;7.53;5.47;;;;;;;;;;5026800;28;20289;-89
2023/09/12 00:27:47;;;;;;;8.82;5.78;;;;;;;;;;5021303;28;20578;-89
2023/09/12 00:30:16;;;;;;;8.50;5.60;;;;;;;;;;5015199;28;20243;-88
2023/09/12 00:32:43;;;;;;;9.80;5.50;;;;;;;;;;5020737;28;20210;-89
2023/09/12 00:35:11;;;;;;;8.85;5.68;;;;;;;;;;5035641;28;20257;-88
2023/09/12 00:37:38;;;;;;;9.70;6.18;;;;;;;;;;5034957;28;20572;-88
2023/09/12 00:40:05;;;;;;;6.78;5.65;;;;;;;;;;5036292;28;20234;-89
2023/09/12 00:42:32;;;;;;;9.77;6.03;;;;;;;;;;5032775;28;20279;-88
2023/09/12 00:44:59;;;;;;;9.27;6.63;;;;;;;;;;5016227;28;20250;-88
2023/09/12 00:47:31;;;;;;;10.30;5.80;;;;;;;;;;5016782;28;20184;-88
2023/09/12 00:49:59;;;;;;;9.95;5.97;;;;;;;;;;5030211;28;20221;-89
2023/09/12 00:52:26;;;;;;;8.88;6.03;;;;;;;;;;5035379;28;20201;-88
2023/09/12 00:54:54;;;;;;;11.20;6.47;;;;;;;;;;5027877;28;20239;-88
2023/09/12 00:57:21;;;;;;;10.48;6.70;;;;;;;;;;5032275;28;20195;-89
2023/09/12 00:59:48;;;;;;;12.65;6.30;;;;;;;;;;5033688;28;20230;-88
2023/09/12 01:02:16;;;;;;;12.38;6.80;;;;;;;;;;5023646;28;20557;-89
2023/09/12 01:04:44;;;;;;;8.88;5.93;;;;;;;;;;5028682;28;20227;-89
2023/09/12 01:07:11;;;;;;;7.47;5.68;;;;;;;;;;5029474;28;20209;-89
2023/09/12 01:09:38;;;;;;;7.45;5.57;;;;;;;;;;5027540;28;20207;-88
2023/09/12 01:12:06;;;;;;;9.25;6.32;;;;;;;;;;5024606;28;20210;-88
2023/09/12 01:14:34;;;;;;;10.95;6.18;;;;;;;;;;5014698;28;20345;-88
2023/09/12 01:17:02;;;;;;;9.18;6.28;;;;;;;;;;5015364;28;20261;-88
2023/09/12 01:19:29;;;;;;;9.00;6.43;;;;;;;;;;5027940;28;20226;-88
2023/09/12 01:22:14;;;;;;;10.85;6.43;;;;;;;;;;5029260;28;20692;-88
2023/09/12 01:24:59;;;;;;;9.90;6.57;;;;;;;;;;5032717;28;20219;-88
2023/09/12 01:27:29;;;;;;;11.15;6.55;;;;;;;;;;5016265;28;20207;-88
2023/09/12 01:29:58;;;;;;;9.52;6.53;;;;;;;;;;5034190;28;20230;-88
2023/09/12 01:32:25;;;;;;;10.35;6.45;;;;;;;;;;5022924;28;20230;-88
2023/09/12 01:34:52;;;;;;;7.97;6.50;;;;;;;;;;5014577;28;20248;-88
2023/09/12 01:37:19;;;;;;;8.83;6.33;;;;;;;;;;5015243;28;20298;-88
2023/09/12 01:39:46;;;;;;;8.70;6.27;;;;;;;;;;5015511;28;20239;-88
2023/09/12 01:42:16;;;;;;;9.93;6.90;;;;;;;;;;5024581;28;20305;-88
2023/09/12 01:44:46;;;;;;;9.30;6.75;;;;;;;;;;5033937;28;20262;-88
2023/09/12 01:47:14;;;;;;;7.25;6.00;;;;;;;;;;5025884;28;20195;-88
2023/09/12 01:49:41;;;;;;;13.05;6.88;;;;;;;;;;5013638;28;20690;-89
2023/09/12 01:52:08;;;;;;;14.02;6.63;;;;;;;;;;5024294;28;20210;-89
2023/09/12 01:54:36;;;;;;;6.95;5.80;;;;;;;;;;5026443;28;20227;-88
2023/09/12 01:57:03;;;;;;;8.32;5.93;;;;;;;;;;5024153;28;20213;-88
2023/09/12 01:59:31;;;;;;;7.60;5.83;;;;;;;;;;5017636;28;20219;-88
2023/09/12 02:01:59;;;;;;;9.13;5.25;;;;;;;;;;5024596;28;20602;-88
2023/09/12 02:04:26;;;;;;;6.25;5.43;;;;;;;;;;5015863;28;20936;-88
2023/09/12 02:06:54;;;;;;;9.63;5.68;;;;;;;;;;5019347;28;20187;-88
2023/09/12 02:09:21;;;;;;;5.78;5.15;;;;;;;;;;5035284;28;20210;-89
2023/09/12 02:11:48;;;;;;;7.03;5.18;;;;;;;;;;5034409;28;20238;-90
2023/09/12 02:14:15;;;;;;;8.73;5.20;;;;;;;;;;5034232;28;20227;-90
2023/09/12 02:16:42;;;;;;;11.15;7.13;;;;;;;;;;5032530;28;20249;-89
2023/09/12 02:19:10;;;;;;;11.20;5.37;;;;;;;;;;5027843;28;20223;-89
2023/09/12 02:21:37;;;;;;;7.63;5.82;;;;;;;;;;5014612;28;20724;-89
2023/09/12 02:24:05;;;;;;;8.67;5.77;;;;;;;;;;5014493;28;20235;-89
2023/09/12 02:26:35;;;;;;;9.27;5.53;;;;;;;;;;5014176;28;20250;-89
2023/09/12 02:29:02;;;;;;;8.50;5.33;;;;;;;;;;5014925;28;20207;-89
2023/09/12 02:31:30;;;;;;;7.77;6.03;;;;;;;;;;5014598;28;20619;-89
2023/09/12 02:33:57;;;;;;;8.53;5.43;;;;;;;;;;5016200;28;20626;-89
2023/09/12 02:36:25;;;;;;;7.90;5.77;;;;;;;;;;5014768;28;20239;-89
2023/09/12 02:38:52;;;;;;;7.67;5.77;;;;;;;;;;5014704;28;20575;-88
2023/09/12 02:41:19;;;;;;;9.43;5.97;;;;;;;;;;5014255;28;20257;-90
2023/09/12 02:43:46;;;;;;;8.97;5.77;;;;;;;;;;5014566;28;20211;-89
2023/09/12 02:46:13;;;;;;;6.97;5.70;;;;;;;;;;5014035;28;20231;-90
2023/09/12 02:48:40;;;;;;;8.17;5.40;;;;;;;;;;5014644;28;20210;-89
2023/09/12 02:51:07;;;;;;;7.90;5.90;;;;;;;;;;5014301;28;20246;-89
2023/09/12 02:53:36;;;;;;;7.70;5.30;;;;;;;;;;5014701;28;20203;-89
2023/09/12 02:56:03;;;;;;;7.67;5.40;;;;;;;;;;5022083;28;20617;-89
2023/09/12 02:58:30;;;;;;;9.13;4.90;;;;;;;;;;5022187;28;20203;-89
2023/09/12 03:00:57;;;;;;;5.50;4.90;;;;;;;;;;5015534;28;20238;-89
2023/09/12 03:03:24;;;;;;;7.80;5.37;;;;;;;;;;5023532;28;20580;-89
2023/09/12 03:05:58;;;;;;;7.13;5.97;;;;;;;;;;5037453;28;20238;-89
2023/09/12 03:08:25;;;;;;;8.10;5.10;;;;;;;;;;5037169;28;20210;-89
2023/09/12 03:10:56;;;;;;;6.53;5.13;;;;;;;;;;5037482;28;20227;-89
2023/09/12 03:13:23;;;;;;;8.83;6.17;;;;;;;;;;5037072;28;20188;-89
2023/09/12 03:15:51;;;;;;;8.10;5.40;;;;;;;;;;5037065;28;20234;-89
2023/09/12 03:18:18;;;;;;;8.03;6.27;;;;;;;;;;5032623;28;20204;-89
2023/09/12 03:20:45;;;;;;;10.27;6.20;;;;;;;;;;5016061;28;20231;-89
2023/09/12 03:23:12;;;;;;;7.93;6.70;;;;;;;;;;5019446;28;20207;-88
2023/09/12 03:25:39;;;;;;;8.90;6.50;;;;;;;;;;5031966;28;20239;-89
2023/09/12 03:28:08;;;;;;;12.30;6.57;;;;;;;;;;5036955;28;20195;-89
2023/09/12 03:30:36;;;;;;;13.90;6.50;;;;;;;;;;5034736;28;20226;-89
2023/09/12 03:33:03;;;;;;;6.77;6.00;;;;;;;;;;5018148;28;20207;-89
2023/09/12 03:35:30;;;;;;;6.50;5.80;;;;;;;;;;5017355;28;20242;-89
2023/09/12 03:37:57;;;;;;;9.43;5.50;;;;;;;;;;5017775;28;20199;-90
2023/09/12 03:40:25;;;;;;;7.27;5.33;;;;;;;;;;5025200;28;20234;-89
2023/09/12 03:42:52;;;;;;;8.43;5.83;;;;;;;;;;5037162;28;20218;-89
2023/09/12 03:45:20;;;;;;;8.47;5.70;;;;;;;;;;5026274;28;20484;-89
2023/09/12 03:47:47;;;;;;;9.50;5.07;;;;;;;;;;5017728;28;20195;-89
2023/09/12 03:50:14;;;;;;;7.27;5.17;;;;;;;;;;5017110;28;20241;-89
2023/09/12 03:52:41;;;;;;;5.17;4.67;;;;;;;;;;5017706;28;20746;-88
2023/09/12 03:55:10;;;;;;;6.10;5.27;;;;;;;;;;5017050;28;20270;-88
2023/09/12 03:57:37;;;;;;;7.67;5.33;;;;;;;;;;5017350;28;20199;-88
2023/09/12 04:00:05;;;;;;;7.73;5.20;;;;;;;;;;5018339;28;20701;-88
2023/09/12 04:02:34;;;;;;;6.53;5.67;;;;;;;;;;5037251;28;20203;-89
2023/09/12 04:05:01;;;;;;;7.70;5.17;;;;;;;;;;5037309;28;20710;-92
2023/09/12 04:07:28;;;;;;;6.00;5.40;;;;;;;;;;5038684;28;20231;-92
2023/09/12 04:09:55;;;;;;;9.30;6.70;;;;;;;;;;5037783;28;20241;-92
2023/09/12 04:12:22;;;;;;;9.20;5.90;;;;;;;;;;5037767;28;20198;-91
2023/09/12 04:14:50;;;;;;;7.23;6.00;;;;;;;;;;5038092;28;20238;-93
2023/09/12 04:17:18;;;;;;;9.63;6.37;;;;;;;;;;5039186;28;20222;-93
2023/09/12 04:19:46;;;;;;;6.93;6.17;;;;;;;;;;5037862;28;20244;-92
2023/09/12 04:22:13;;;;;;;10.47;5.60;;;;;;;;;;5037271;28;20218;-92
2023/09/12 04:24:41;;;;;;;12.30;6.40;;;;;;;;;;5037463;28;20715;-92
2023/09/12 04:27:08;;;;;;;9.40;6.60;;;;;;;;;;5050817;28;20199;-92
2023/09/12 04:29:35;;;;;;;12.13;6.40;;;;;;;;;;5043298;28;20198;-94
2023/09/12 04:32:03;;;;;;;7.90;6.87;;;;;;;;;;5039304;28;20206;-95
2023/09/12 04:34:30;;;;;;;10.73;7.33;;;;;;;;;;5038278;28;20233;-92
2023/09/12 04:36:59;;;;;;;8.40;6.63;;;;;;;;;;5038167;28;20206;-91
2023/09/12 04:39:26;;;;;;;11.27;7.00;;;;;;;;;;5037137;28;20279;-90
2023/09/12 04:41:53;;;;;;;12.97;6.77;;;;;;;;;;5037502;28;20199;-91
2023/09/12 04:44:20;;;;;;;8.30;7.20;;;;;;;;;;5038199;28;20227;-94
2023/09/12 04:46:48;;;;;;;9.47;7.00;;;;;;;;;;5039142;28;20227;-96
2023/09/12 04:49:15;;;;;;;8.67;6.63;;;;;;;;;;5033458;28;20323;-89
2023/09/12 04:51:43;;;;;;;10.20;7.17;;;;;;;;;;5036249;28;20234;-89
2023/09/12 04:54:11;;;;;;;10.93;7.07;;;;;;;;;;5019041;28;20395;-90
2023/09/12 04:56:38;;;;;;;10.20;7.33;;;;;;;;;;5018332;28;20705;-89
2023/09/12 04:59:06;;;;;;;11.90;8.20;;;;;;;;;;5034415;28;20214;-91
2023/09/12 05:01:33;;;;;;;10.83;8.90;;;;;;;;;;5032592;28;20238;-90
2023/09/12 05:04:00;;;;;;;13.47;7.80;;;;;;;;;;5035330;28;20231;-85
2023/09/12 05:06:28;;;;;;;13.20;7.97;;;;;;;;;;5034718;28;20241;-84
2023/09/12 05:08:55;;;;;;;14.20;8.07;;;;;;;;;;5035045;28;20256;-84
2023/09/12 05:11:24;;;;;;;15.33;8.23;;;;;;;;;;5034874;28;20231;-84
2023/09/12 05:13:51;;;;;;;9.05;7.25;;;;;;;;;;5034801;28;20203;-85
2023/09/12 05:16:18;;;;;;;11.00;8.10;;;;;;;;;;5034600;28;20245;-85
2023/09/12 05:18:45;;;;;;;10.03;7.53;;;;;;;;;;5034923;28;20633;-84
2023/09/12 05:21:12;;;;;;;10.97;8.40;;;;;;;;;;5033853;28;20261;-84
2023/09/12 05:23:39;;;;;;;14.17;7.87;;;;;;;;;;5033049;28;20203;-84
2023/09/12 05:26:07;;;;;;;8.80;7.03;;;;;;;;;;5032719;28;20538;-85
2023/09/12 05:28:35;;;;;;;10.53;7.70;;;;;;;;;;5035215;28;20207;-84
2023/09/12 05:31:03;;;;;;;11.17;8.50;;;;;;;;;;5034269;28;20231;-85
2023/09/12 05:33:30;;;;;;;12.37;7.43;;;;;;;;;;5035004;28;20261;-84
2023/09/12 05:35:57;;;;;;;14.80;7.33;;;;;;;;;;5034069;28;20249;-85
2023/09/12 05:38:24;;;;;;;8.90;7.33;;;;;;;;;;5034881;28;20207;-85
2023/09/12 05:40:51;;;;;;;8.57;7.67;;;;;;;;;;5034188;28;20805;-85
2023/09/12 05:43:18;;;;;;;12.57;8.23;;;;;;;;;;5034678;28;20732;-85
2023/09/12 05:45:47;;;;;;;9.60;7.80;;;;;;;;;;5033908;28;20701;-85
2023/09/12 05:48:14;;;;;;;13.53;8.43;;;;;;;;;;5034475;28;20207;-85
2023/09/12 05:50:41;;;;;;;12.70;8.20;;;;;;;;;;5034292;28;20227;-86
2023/09/12 05:53:09;;;;;;;12.63;8.57;;;;;;;;;;5034388;28;20211;-85
2023/09/12 05:55:36;;;;;;;10.90;8.70;;;;;;;;;;5033589;28;20231;-85
2023/09/12 05:58:05;;;;;;;9.53;8.23;;;;;;;;;;5034782;28;20214;-89
2023/09/12 06:00:32;;;;;;;12.50;8.57;;;;;;;;;;5031164;28;20230;-89
2023/09/12 06:03:00;;;;;;;13.73;9.60;;;;;;;;;;5035317;28;20198;-88
2023/09/12 06:05:27;;;;;;;14.75;8.88;;;;;;;;;;5034765;28;20781;-88
2023/09/12 06:07:54;;;;;;;10.67;8.40;;;;;;;;;;5035291;28;20242;-88
2023/09/12 06:10:21;;;;;;;16.73;9.37;;;;;;;;;;5034956;28;20233;-88
2023/09/12 06:12:49;;;;;;;10.17;8.93;;;;;;;;;;5028101;28;20211;-88
2023/09/12 06:15:16;;;;;;;14.47;8.70;;;;;;;;;;5031410;28;20278;-88
2023/09/12 06:17:43;;;;;;;10.40;9.33;;;;;;;;;;5029291;28;20206;-88
2023/09/12 06:20:12;;;;;;;10.70;8.13;;;;;;;;;;5034406;28;20234;-89
2023/09/12 06:22:39;;;;;;;12.63;7.93;;;;;;;;;;5026702;28;20209;-88
2023/09/12 06:25:07;;;;;;;11.67;9.17;;;;;;;;;;5031795;28;20257;-89
2023/09/12 06:27:46;;;;;;;13.18;8.38;;;;;;;;;;5032710;28;20553;-88
2023/09/12 06:30:14;;;;;;;10.40;8.67;;;;;;;;;;5024018;28;20223;-88
2023/09/12 06:32:41;;;;;;;14.23;9.50;;;;;;;;;;5033019;28;20202;-88
2023/09/12 06:35:10;;;;;;;15.02;9.75;;;;;;;;;;5032372;28;20245;-88
2023/09/12 06:37:39;;;;;;;12.30;9.37;;;;;;;;;;5033193;28;20214;-88
2023/09/12 06:40:07;;;;;;;12.13;9.88;;;;;;;;;;5032988;28;20230;-88
2023/09/12 06:42:34;;;;;;;14.07;9.67;;;;;;;;;;5033839;28;20218;-88
2023/09/12 06:45:01;;;;;;;11.90;9.77;;;;;;;;;;5032889;28;20234;-88
2023/09/12 06:47:28;;;;;;;13.77;9.17;;;;;;;;;;5033922;28;20225;-88
2023/09/12 06:49:55;;;;;;;13.80;9.70;;;;;;;;;;5032747;28;20230;-88
2023/09/12 06:52:23;;;;;;;19.07;10.30;;;;;;;;;;5033844;28;20206;-88
2023/09/12 06:54:51;;;;;;;15.80;10.17;;;;;;;;;;5029579;28;20238;-88
2023/09/12 06:57:18;;;;;;;12.13;10.27;;;;;;;;;;5033217;28;20202;-88
2023/09/12 06:59:47;;;;;;;15.73;10.07;;;;;;;;;;5032457;28;20223;-87
2023/09/12 07:02:15;;;;;;;12.03;9.13;;;;;;;;;;5017334;28;20260;-87
2023/09/12 07:04:42;;;;;;;10.47;9.37;;;;;;;;;;5032522;28;20241;-87
2023/09/12 07:07:09;;;;;;;12.57;9.93;;;;;;;;;;5032867;28;20669;-87
2023/09/12 07:09:36;;;;;;;13.17;10.27;;;;;;;;;;5032397;28;20692;-87
2023/09/12 07:12:05;;;;;;;11.57;10.00;;;;;;;;;;5033006;28;20767;-87
2023/09/12 07:14:32;;;;;;;15.87;10.50;;;;;;;;;;5033181;28;20276;-88
2023/09/12 07:16:59;;;;;;;12.60;10.80;;;;;;;;;;5032954;28;20707;-87
2023/09/12 07:19:26;;;;;;;15.57;11.00;;;;;;;;;;5028629;28;20242;-88
2023/09/12 07:21:54;;;;;;;15.07;11.57;;;;;;;;;;5033178;28;20221;-88
2023/09/12 07:24:21;;;;;;;16.13;10.13;;;;;;;;;;5032732;28;20289;-88
2023/09/12 07:26:48;;;;;;;11.80;10.40;;;;;;;;;;5033160;28;20217;-88
2023/09/12 07:29:16;;;;;;;15.52;11.43;;;;;;;;;;5031966;28;20203;-87
2023/09/12 07:31:43;;;;;;;11.73;9.67;;;;;;;;;;5026447;28;20603;-88
2023/09/12 07:34:11;;;;;;;15.48;10.63;;;;;;;;;;5030421;28;20625;-87
2023/09/12 07:36:39;;;;;;;17.45;10.60;;;;;;;;;;5031006;28;20277;-88
2023/09/12 07:39:06;;;;;;;16.58;10.52;;;;;;;;;;5032255;28;20198;-88
2023/09/12 07:41:33;;;;;;;15.35;9.75;;;;;;;;;;5032444;28;20314;-88
2023/09/12 07:44:01;;;;;;;14.60;9.65;;;;;;;;;;5032196;28;20733;-88
2023/09/12 07:46:30;;;;;;;17.02;9.35;;;;;;;;;;5031237;28;20747;-88
2023/09/12 07:48:58;;;;;;;16.42;9.38;;;;;;;;;;5035215;28;20202;-88
2023/09/12 07:51:25;;;;;;;11.15;8.38;;;;;;;;;;5034946;28;20602;-88
2023/09/12 07:53:52;;;;;;;17.63;9.00;;;;;;;;;;5036218;28;20213;-89
2023/09/12 07:56:19;;;;;;;11.15;8.35;;;;;;;;;;5028569;28;20239;-89
2023/09/12 07:58:47;;;;;;;10.50;8.63;;;;;;;;;;5036543;28;20203;-87
2023/09/12 08:01:14;;;;;;;12.50;8.88;;;;;;;;;;5036524;28;20240;-88
2023/09/12 08:03:43;;;;;;;13.32;8.00;;;;;;;;;;5037401;28;20217;-88
2023/09/12 08:06:11;;;;;;;11.25;7.43;;;;;;;;;;5036709;28;20257;-88
2023/09/12 08:08:38;;;;;;;12.27;7.38;;;;;;;;;;5037148;28;20566;-91
2023/09/12 08:11:05;;;;;;;12.35;6.88;;;;;;;;;;5037803;28;20223;-91
2023/09/12 08:13:32;;;;;;;12.05;7.20;;;;;;;;;;5038209;28;20199;-91
2023/09/12 08:15:59;;;;;;;11.05;7.18;;;;;;;;;;5036859;28;20710;-91
2023/09/12 08:18:28;;;;;;;8.60;6.80;;;;;;;;;;5036042;28;20210;-91
2023/09/12 08:20:56;;;;;;;11.32;7.00;;;;;;;;;;5035048;28;20235;-91
2023/09/12 08:23:23;;;;;;;7.90;5.72;;;;;;;;;;5036186;28;20206;-92
2023/09/12 08:25:51;;;;;;;12.73;6.78;;;;;;;;;;5035273;28;20230;-91
2023/09/12 08:28:18;;;;;;;9.93;6.57;;;;;;;;;;5036047;28;20202;-92
2023/09/12 08:30:46;;;;;;;12.75;7.03;;;;;;;;;;5036972;28;20249;-92
2023/09/12 08:33:13;;;;;;;6.80;5.80;;;;;;;;;;5036841;28;20195;-91
2023/09/12 08:35:40;;;;;;;7.85;6.40;;;;;;;;;;5034097;28;20233;-90
2023/09/12 08:38:09;;;;;;;11.40;6.78;;;;;;;;;;5034580;28;20222;-90
2023/09/12 08:40:36;;;;;;;9.52;6.30;;;;;;;;;;5033429;28;20234;-90
2023/09/12 08:43:04;;;;;;;9.90;6.25;;;;;;;;;;5035452;28;20214;-92
2023/09/12 08:45:31;;;;;;;10.13;5.82;;;;;;;;;;5035833;28;20231;-92
2023/09/12 08:48:01;;;;;;;12.00;6.38;;;;;;;;;;5037034;28;20210;-92
2023/09/12 08:50:30;;;;;;;7.63;5.53;;;;;;;;;;5036790;28;20243;-92
2023/09/12 08:52:58;;;;;;;6.82;5.32;;;;;;;;;;5037803;28;20590;-93
2023/09/12 08:55:27;;;;;;;9.38;5.68;;;;;;;;;;5036578;28;20265;-93
2023/09/12 08:57:54;;;;;;;9.48;5.40;;;;;;;;;;5036903;28;20198;-92
2023/09/12 09:00:22;;;;;;;8.25;5.50;;;;;;;;;;5036095;28;20239;-92
2023/09/12 09:02:50;;;;;;;8.75;5.63;;;;;;;;;;5036974;28;20222;-91
2023/09/12 09:05:18;;;;;;;10.45;5.35;;;;;;;;;;5035989;28;20240;-93
2023/09/12 09:07:45;;;;;;;9.15;4.68;;;;;;;;;;5030602;28;20219;-92
2023/09/12 09:10:16;;;;;;;7.82;4.40;;;;;;;;;;5035477;28;20230;-93
2023/09/12 09:12:46;;;;;;;7.65;4.60;;;;;;;;;;5038645;28;20203;-92
2023/09/12 09:15:23;;;;;;;9.73;4.35;;;;;;;;;;5036029;28;20242;-93
2023/09/12 09:17:50;;;;;;;11.80;4.80;;;;;;;;;;5035231;28;20252;-87
2023/09/12 09:20:28;;;;;;;11.98;4.78;;;;;;;;;;5035804;28;20277;-88
2023/09/12 09:22:59;;;;;;;4.43;4.03;;;;;;;;;;5035341;28;20273;-89
2023/09/12 09:25:26;;;;;;;7.65;4.68;;;;;;;;;;5027336;28;20258;-88
2023/09/12 09:27:55;;;;;;;7.85;4.38;;;;;;;;;;5036520;28;20218;-86
2023/09/12 09:30:40;;;;;;;5.43;4.22;;;;;;;;;;5034575;28;20240;-87
2023/09/12 09:33:07;;;;;;;10.38;4.60;;;;;;;;;;5035903;28;20201;-87
2023/09/12 09:35:34;;;;;;;8.20;4.53;;;;;;;;;;5033944;28;20229;-88
2023/09/12 09:38:01;;;;;;;6.00;4.25;;;;;;;;;;5035022;28;20209;-88
2023/09/12 09:40:28;;;;;;;7.53;4.30;;;;;;;;;;5034304;28;20230;-88
2023/09/12 09:42:57;;;;;;;7.50;4.95;;;;;;;;;;5034733;28;20234;-88
2023/09/12 09:45:24;;;;;;;8.27;4.47;;;;;;;;;;5026407;28;20233;-88
2023/09/12 09:47:52;;;;;;;8.75;4.35;;;;;;;;;;5035580;28;20198;-88
2023/09/12 09:50:19;;;;;;;9.13;3.92;;;;;;;;;;5034873;28;20233;-89
2023/09/12 09:52:46;;;;;;;9.02;5.30;;;;;;;;;;5035111;28;20203;-89
2023/09/12 09:55:15;;;;;;;6.20;4.00;;;;;;;;;;5033431;28;20256;-88
2023/09/12 09:57:42;;;;;;;8.43;4.03;;;;;;;;;;5030426;28;20206;-89
2023/09/12 10:00:14;;;;;;;12.57;4.50;;;;;;;;;;5034694;28;20238;-90
2023/09/12 10:02:42;;;;;;;10.68;4.40;;;;;;;;;;5033812;28;20230;-89
2023/09/12 10:05:11;;;;;;;8.20;4.25;;;;;;;;;;5034149;28;20316;-89
2023/09/12 10:07:39;;;;;;;6.38;4.43;;;;;;;;;;5028820;28;20191;-88
2023/09/12 10:10:06;;;;;;;9.25;4.35;;;;;;;;;;5034473;28;20233;-89
2023/09/12 10:12:35;;;;;;;5.68;4.35;;;;;;;;;;5035417;28;20210;-88
2023/09/12 10:15:04;;;;;;;6.80;4.35;;;;;;;;;;5034594;28;20238;-87
2023/09/12 10:17:35;;;;;;;6.07;4.10;;;;;;;;;;5035402;28;20222;-88
2023/09/12 10:20:05;;;;;;;8.85;4.40;;;;;;;;;;5034443;28;20230;-88
2023/09/12 10:22:35;;;;;;;7.20;4.10;;;;;;;;;;5034054;28;20219;-88
2023/09/12 10:25:02;;;;;;;5.88;4.65;;;;;;;;;;5033202;28;20235;-88
2023/09/12 10:27:30;;;;;;;4.85;4.00;;;;;;;;;;5035828;28;20210;-88
2023/09/12 10:29:59;;;;;;;8.57;4.25;;;;;;;;;;5034409;28;20234;-88
2023/09/12 10:32:27;;;;;;;10.32;4.45;;;;;;;;;;5034239;28;20207;-88
2023/09/12 10:34:59;;;;;;;7.72;4.60;;;;;;;;;;5033682;28;20324;-88
2023/09/12 10:37:27;;;;;;;6.25;4.22;;;;;;;;;;5033913;28;20195;-87
2023/09/12 10:39:54;;;;;;;7.88;4.53;;;;;;;;;;5033049;28;20230;-88
2023/09/12 10:42:22;;;;;;;7.60;4.38;;;;;;;;;;5033338;28;20234;-87
2023/09/12 10:44:50;;;;;;;5.00;4.28;;;;;;;;;;5032626;28;20240;-88
2023/09/12 10:47:17;;;;;;;8.40;4.75;;;;;;;;;;5033350;28;20241;-88
2023/09/12 10:49:45;;;;;;;5.97;4.30;;;;;;;;;;5033003;28;20262;-88
2023/09/12 10:52:25;;;;;;;8.25;4.30;;;;;;;;;;5032860;28;20669;-87
2023/09/12 10:54:52;;;;;;;7.18;3.97;;;;;;;;;;5032761;28;20261;-87
2023/09/12 10:57:19;;;;;;;7.07;4.22;;;;;;;;;;5032762;28;20230;-87
2023/09/12 11:00:01;;;;;;;9.15;4.70;;;;;;;;;;5033039;28;20231;-87
2023/09/12 11:02:29;;;;;;;7.25;4.13;;;;;;;;;;5012887;28;20229;-87
2023/09/12 11:04:56;;;;;;;6.47;4.88;;;;;;;;;;5026415;28;20769;-85
2023/09/12 11:07:44;;;;;;;8.02;3.78;;;;;;;;;;5031761;28;20211;-87
2023/09/12 11:10:18;;;;;;;7.55;4.50;;;;;;;;;;5032135;28;20242;-88
2023/09/12 11:12:46;;;;;;;10.45;4.72;;;;;;;;;;5032939;28;20355;-88
2023/09/12 11:15:13;;;;;;;6.60;4.90;;;;;;;;;;5031327;28;20701;-88
2023/09/12 11:17:40;;;;;;;7.32;4.45;;;;;;;;;;5032913;28;20313;-88
2023/09/12 11:20:10;;;;;;;7.53;5.00;;;;;;;;;;5031875;28;20218;-87
2023/09/12 11:22:40;;;;;;;6.25;5.00;;;;;;;;;;5033325;28;20207;-88
2023/09/12 11:25:16;;;;;;;6.65;5.07;;;;;;;;;;5036447;28;20218;-87
2023/09/12 11:27:46;;;;;;;8.98;5.10;;;;;;;;;;5037327;28;20182;-87
2023/09/12 11:30:13;;;;;;;7.93;4.97;;;;;;;;;;5036570;28;20220;-87
2023/09/12 11:32:40;;;;;;;7.25;5.57;;;;;;;;;;5036847;28;20195;-87
2023/09/12 11:35:09;;;;;;;9.80;4.65;;;;;;;;;;5034769;28;20258;-85
2023/09/12 11:37:37;;;;;;;7.45;5.10;;;;;;;;;;5033436;28;20210;-87
2023/09/12 11:40:17;;;;;;;6.03;4.45;;;;;;;;;;5017339;28;20227;-88
2023/09/12 11:42:46;;;;;;;9.75;5.00;;;;;;;;;;5029260;28;20227;-92
2023/09/12 11:45:25;;;;;;;9.57;5.40;;;;;;;;;;5034984;28;20774;-91
2023/09/12 11:47:53;;;;;;;9.88;4.70;;;;;;;;;;5035414;28;20260;-92
2023/09/12 11:50:29;;;;;;;7.90;5.22;;;;;;;;;;5034885;28;20245;-90
2023/09/12 11:53:01;;;;;;;9.65;4.93;;;;;;;;;;5035947;28;20332;-91
2023/09/12 11:55:32;;;;;;;7.68;5.15;;;;;;;;;;5034165;28;20345;-92
2023/09/12 11:57:59;;;;;;;13.27;4.80;;;;;;;;;;5035510;28;20195;-91
2023/09/12 12:00:26;;;;;;;9.73;5.10;;;;;;;;;;5036545;28;20230;-91
2023/09/12 12:02:54;;;;;;;9.27;5.35;;;;;;;;;;5037197;28;20822;-92
2023/09/12 12:05:21;;;;;;;7.57;4.75;;;;;;;;;;5036619;28;20239;-91
2023/09/12 12:07:48;;;;;;;7.65;4.90;;;;;;;;;;5037283;28;20909;-91
2023/09/12 12:10:15;;;;;;;8.25;5.20;;;;;;;;;;5036691;28;20322;-91
2023/09/12 12:12:45;;;;;;;5.68;4.57;;;;;;;;;;5036816;28;20230;-90
2023/09/12 12:15:13;;;;;;;8.98;4.95;;;;;;;;;;5036215;28;20234;-92
2023/09/12 12:17:42;;;;;;;6.00;5.10;;;;;;;;;;5036576;28;20198;-90
2023/09/12 12:20:10;;;;;;;8.25;5.38;;;;;;;;;;5036346;28;20238;-90
2023/09/12 12:22:38;;;;;;;7.50;4.78;;;;;;;;;;5036577;28;20249;-91
2023/09/12 12:25:10;;;;;;;10.60;5.22;;;;;;;;;;5036390;28;20288;-91
2023/09/12 12:27:38;;;;;;;7.25;5.20;;;;;;;;;;5021347;28;20322;-91
2023/09/12 12:30:09;;;;;;;7.95;4.75;;;;;;;;;;5036385;28;20329;-91
2023/09/12 12:32:37;;;;;;;6.45;4.75;;;;;;;;;;5029157;28;20230;-92
2023/09/12 12:35:04;;;;;;;5.57;4.93;;;;;;;;;;5031460;28;20257;-91
2023/09/12 12:37:32;;;;;;;6.28;5.20;;;;;;;;;;5036543;28;20206;-91
2023/09/12 12:39:59;;;;;;;5.07;4.28;;;;;;;;;;5036300;28;20230;-90
2023/09/12 12:42:27;;;;;;;8.57;4.70;;;;;;;;;;5037007;28;20241;-91
2023/09/12 12:44:55;;;;;;;6.10;4.43;;;;;;;;;;5035195;28;20740;-90
2023/09/12 12:47:23;;;;;;;7.35;5.15;;;;;;;;;;5036826;28;20237;-92
2023/09/12 12:49:54;;;;;;;11.48;5.30;;;;;;;;;;5036512;28;20225;-91
2023/09/12 12:52:25;;;;;;;6.22;5.20;;;;;;;;;;5035974;28;20605;-91
2023/09/12 12:54:54;;;;;;;7.28;5.18;;;;;;;;;;5035351;28;20234;-91
2023/09/12 12:57:21;;;;;;;8.40;5.22;;;;;;;;;;5035924;28;20202;-90
2023/09/12 12:59:48;;;;;;;7.35;5.75;;;;;;;;;;5035315;28;20226;-90
2023/09/12 13:02:16;;;;;;;8.00;5.32;;;;;;;;;;5032739;28;20233;-90
2023/09/12 13:04:44;;;;;;;7.18;5.05;;;;;;;;;;5033633;28;20234;-90
2023/09/12 13:07:11;;;;;;;5.55;5.00;;;;;;;;;;5033705;28;20696;-90
2023/09/12 13:09:38;;;;;;;7.20;5.47;;;;;;;;;;5034902;28;20596;-90
2023/09/12 13:12:08;;;;;;;7.57;5.47;;;;;;;;;;5035718;28;20206;-89
2023/09/12 13:14:35;;;;;;;10.13;5.55;;;;;;;;;;5035104;28;20253;-90
2023/09/12 13:17:02;;;;;;;6.63;5.22;;;;;;;;;;5035670;28;20207;-91
2023/09/12 13:19:30;;;;;;;6.47;5.72;;;;;;;;;;5035972;28;20900;-91
2023/09/12 13:21:58;;;;;;;6.15;5.53;;;;;;;;;;5036731;28;20234;-91
2023/09/12 13:24:25;;;;;;;7.82;5.45;;;;;;;;;;5034650;28;20234;-91
2023/09/12 13:26:53;;;;;;;6.43;5.55;;;;;;;;;;5025171;28;20217;-90
2023/09/12 13:29:20;;;;;;;7.65;5.28;;;;;;;;;;5033970;28;20673;-90
2023/09/12 13:31:47;;;;;;;6.75;5.13;;;;;;;;;;5034512;28;20203;-92
2023/09/12 13:34:14;;;;;;;9.88;5.50;;;;;;;;;;5034685;28;20234;-91
2023/09/12 13:36:41;;;;;;;6.95;5.50;;;;;;;;;;5034154;28;20695;-90
2023/09/12 13:39:12;;;;;;;5.60;5.10;;;;;;;;;;5034481;28;20215;-91
2023/09/12 13:41:41;;;;;;;7.90;5.38;;;;;;;;;;5034438;28;20226;-90
2023/09/12 13:44:08;;;;;;;7.38;5.50;;;;;;;;;;5034074;28;20306;-90
2023/09/12 13:46:35;;;;;;;7.65;5.32;;;;;;;;;;5032580;28;20233;-89
2023/09/12 13:49:03;;;;;;;7.18;5.00;;;;;;;;;;5034360;28;20210;-90
2023/09/12 13:51:30;;;;;;;8.52;5.18;;;;;;;;;;5033909;28;20237;-90
2023/09/12 13:53:57;;;;;;;5.15;4.65;;;;;;;;;;5035017;28;20265;-91
2023/09/12 13:56:25;;;;;;;5.07;4.57;;;;;;;;;;5029837;28;20248;-90
2023/09/12 13:58:53;;;;;;;6.93;5.15;;;;;;;;;;5036434;28;20191;-89
2023/09/12 14:01:20;;;;;;;7.65;5.28;;;;;;;;;;5030938;28;20317;-89
2023/09/12 14:03:47;;;;;;;8.75;4.97;;;;;;;;;;5034670;28;20292;-90
2023/09/12 14:06:14;;;;;;;5.25;4.50;;;;;;;;;;5032726;28;20234;-88
2023/09/12 14:08:41;;;;;;;6.68;4.82;;;;;;;;;;5040091;28;20207;-88
2023/09/12 14:11:08;;;;;;;6.00;4.55;;;;;;;;;;5034448;28;20226;-89
2023/09/12 14:13:37;;;;;;;6.03;4.40;;;;;;;;;;5034276;28;20218;-90
2023/09/12 14:16:04;;;;;;;6.85;4.78;;;;;;;;;;5033227;28;20237;-89
2023/09/12 14:18:31;;;;;;;5.43;4.60;;;;;;;;;;5033939;28;20211;-90
2023/09/12 14:20:58;;;;;;;5.97;5.00;;;;;;;;;;5031678;28;20234;-91
2023/09/12 14:23:25;;;;;;;7.45;4.80;;;;;;;;;;5033085;28;20237;-91
2023/09/12 14:25:52;;;;;;;7.88;5.32;;;;;;;;;;5033380;28;20226;-91
2023/09/12 14:28:19;;;;;;;8.95;4.75;;;;;;;;;;5034192;28;20237;-91
2023/09/12 14:30:49;;;;;;;5.28;4.65;;;;;;;;;;5033819;28;20238;-91
2023/09/12 14:33:18;;;;;;;4.85;4.35;;;;;;;;;;5034715;28;20633;-90
2023/09/12 14:35:45;;;;;;;5.25;4.50;;;;;;;;;;5026711;28;20226;-91
2023/09/12 14:38:12;;;;;;;9.07;6.22;;;;;;;;;;5030449;28;20206;-92
2023/09/12 14:40:39;;;;;;;5.50;4.45;;;;;;;;;;5032577;28;20229;-90
2023/09/12 14:43:07;;;;;;;5.38;4.82;;;;;;;;;;5034112;28;20226;-91